Time;durP1;ratioP1;P1;durP2;ratioP2;P2;SDS_P1;SDS_P2;PMS_P1;PMS_P2;Temp;Humidity;BMP_temperature;BMP_pressure;BME280_temperature;BME280_humidity;BME280_pressure;Samples;Min_cycle;Max_cycle;Signal;HPM_P1;HPM_P2
2024/04/03 00:01:15;;;;;;;14.57;2.63;;;11.30;99.90;;;10.77;100.00;99968.94;4184764;28;20438;-55
2024/04/03 00:03:16;;;;;;;15.90;2.38;;;11.30;99.90;;;10.78;100.00;99956.59;4185189;28;20017;-52
2024/04/03 00:05:17;;;;;;;13.90;2.58;;;11.40;99.90;;;10.77;100.00;99954.94;4184826;28;20051;-54
2024/04/03 00:07:18;;;;;;;17.02;3.03;;;11.40;99.90;;;10.80;100.00;99958.03;4184723;28;20029;-55
2024/04/03 00:09:19;;;;;;;13.20;2.88;;;11.40;99.90;;;10.78;100.00;99956.59;4184908;28;20040;-55
2024/04/03 00:11:19;;;;;;;8.73;2.70;;;11.40;99.90;;;10.80;100.00;99959.84;4184964;28;20082;-51
2024/04/03 00:13:20;;;;;;;11.27;2.17;;;11.40;99.90;;;10.78;100.00;99956.59;4184552;28;20079;-55
2024/04/03 00:15:21;;;;;;;8.98;1.55;;;11.40;99.90;;;10.75;100.00;99963.00;4184815;28;20047;-55
2024/04/03 00:17:22;;;;;;;9.63;2.35;;;11.40;99.90;;;10.76;100.00;99950.66;4184723;28;20574;-55
2024/04/03 00:19:23;;;;;;;20.45;3.42;;;11.40;99.90;;;10.78;100.00;99959.22;4184899;28;20025;-53
2024/04/03 00:21:24;;;;;;;14.30;3.00;;;11.40;99.90;;;10.74;100.00;99956.13;4185013;28;20468;-55
2024/04/03 00:23:25;;;;;;;17.63;2.42;;;11.40;99.90;;;10.76;100.00;99948.84;4184927;28;20032;-53
2024/04/03 00:25:26;;;;;;;15.05;2.35;;;11.40;99.90;;;10.77;100.00;99957.56;4184741;28;20047;-55
2024/04/03 00:27:28;;;;;;;15.52;2.33;;;11.40;99.90;;;10.75;100.00;99952.47;4185018;28;20021;-54
2024/04/03 00:29:29;;;;;;;16.98;2.08;;;11.40;99.90;;;10.77;100.00;99958.41;4184525;28;20036;-55
2024/04/03 00:31:30;;;;;;;24.80;3.33;;;11.40;99.90;;;10.78;100.00;99953.94;4184688;28;20018;-56
2024/04/03 00:33:31;;;;;;;10.68;1.58;;;11.40;99.90;;;10.78;100.00;99953.94;4184599;28;20041;-54
2024/04/03 00:35:31;;;;;;;13.00;2.85;;;11.40;99.90;;;10.80;100.00;99952.78;4184772;28;20025;-55
2024/04/03 00:37:36;;;;;;;13.05;2.72;;;11.40;99.90;;;10.81;100.00;99951.75;4184877;28;20025;-54
2024/04/03 00:39:37;;;;;;;10.90;2.67;;;11.40;99.90;;;10.80;100.00;99958.03;4184684;28;20021;-54
2024/04/03 00:41:38;;;;;;;13.63;2.20;;;11.40;99.90;;;10.78;100.00;99952.09;4186281;28;20509;-56
2024/04/03 00:43:39;;;;;;;11.20;2.33;;;11.40;99.90;;;10.81;100.00;99943.84;4187519;28;20040;-54
2024/04/03 00:45:40;;;;;;;14.23;2.60;;;11.40;99.90;;;10.84;100.00;99946.13;4187805;28;20075;-52
2024/04/03 00:47:41;;;;;;;14.32;2.50;;;11.40;99.90;;;10.86;100.00;99949.44;4186526;28;20159;-53
2024/04/03 00:49:45;;;;;;;10.95;2.10;;;11.50;99.90;;;10.85;100.00;99947.78;4183963;28;20033;-55
2024/04/03 00:51:50;;;;;;;19.85;3.03;;;11.50;99.90;;;10.84;100.00;99940.84;4187583;28;20025;-54
2024/04/03 00:53:51;;;;;;;14.05;2.42;;;11.40;99.90;;;10.86;100.00;99944.16;4187491;28;20024;-54
2024/04/03 00:55:52;;;;;;;9.23;2.45;;;11.50;99.90;;;10.86;100.00;99938.88;4187440;28;20064;-54
2024/04/03 00:57:53;;;;;;;10.57;1.67;;;11.50;99.90;;;10.91;100.00;99954.97;4187385;28;20025;-56
2024/04/03 00:59:54;;;;;;;12.23;2.00;;;11.50;99.90;;;10.89;100.00;99948.25;4187235;28;20047;-55
2024/04/03 01:01:55;;;;;;;12.80;2.40;;;11.50;99.90;;;10.89;100.00;99946.44;4185940;28;20021;-55
2024/04/03 01:03:55;;;;;;;6.10;1.33;;;11.50;99.90;;;10.90;100.00;99955.97;4219587;28;20525;-56
2024/04/03 01:06:03;;;;;;;7.32;1.52;;;11.50;99.90;;;10.95;100.00;99958.09;4187263;28;20024;-56
2024/04/03 01:08:05;;;;;;;11.02;2.03;;;11.50;99.90;;;10.92;100.00;99956.63;4187329;28;20108;-55
2024/04/03 01:10:06;;;;;;;4.38;1.33;;;11.50;99.90;;;10.90;100.00;99948.06;4187336;28;20057;-55
2024/04/03 01:12:07;;;;;;;7.20;1.85;;;11.60;99.90;;;10.92;100.00;99948.72;4185951;28;20029;-57
2024/04/03 01:14:08;;;;;;;5.13;1.90;;;11.60;99.90;;;10.93;100.00;99950.34;4183194;28;20026;-56
2024/04/03 01:16:09;;;;;;;7.28;1.20;;;11.60;99.90;;;10.94;100.00;99946.72;4187277;28;20048;-56
2024/04/03 01:18:10;;;;;;;9.18;2.20;;;11.60;99.90;;;10.97;100.00;99945.53;4187128;28;20033;-53
2024/04/03 01:20:12;;;;;;;10.30;1.60;;;11.60;99.90;;;10.96;100.00;99952.63;4187088;28;20029;-56
2024/04/03 01:22:13;;;;;;;8.63;1.75;;;11.60;99.90;;;10.98;100.00;99950.66;4187070;28;20025;-55
2024/04/03 01:24:14;;;;;;;21.85;4.20;;;11.60;99.90;;;11.04;100.00;99943.84;4187137;28;20029;-56
2024/04/03 01:26:14;;;;;;;15.93;2.78;;;11.60;99.90;;;11.02;100.00;99938.72;4187222;28;20033;-56
2024/04/03 01:28:17;;;;;;;18.17;2.78;;;11.60;99.90;;;10.97;100.00;99935.81;4186820;28;20029;-56
2024/04/03 01:30:18;;;;;;;17.80;2.72;;;11.70;99.90;;;10.99;100.00;99939.06;4186811;28;20112;-56
2024/04/03 01:32:19;;;;;;;12.63;2.95;;;11.60;99.90;;;10.99;100.00;99939.06;4187142;28;20376;-55
2024/04/03 01:34:21;;;;;;;11.50;1.80;;;11.60;99.90;;;11.01;100.00;99931.00;4186496;28;20045;-56
2024/04/03 01:36:22;;;;;;;15.50;2.88;;;11.60;99.90;;;11.01;100.00;99936.28;4186910;28;20037;-56
2024/04/03 01:38:22;;;;;;;22.88;3.22;;;11.70;99.90;;;11.09;100.00;99934.38;4186873;28;20558;-56
2024/04/03 01:40:23;;;;;;;18.98;3.63;;;11.70;99.90;;;11.09;100.00;99942.28;4186862;28;20032;-55
2024/04/03 01:42:25;;;;;;;19.95;3.63;;;11.70;99.90;;;11.11;100.00;99935.00;4186792;28;20051;-55
2024/04/03 01:44:26;;;;;;;19.90;2.92;;;11.70;99.90;;;11.14;100.00;99930.41;4186696;28;20166;-56
2024/04/03 01:46:27;;;;;;;29.10;4.97;;;11.70;99.90;;;11.14;100.00;99938.31;4186667;28;20037;-55
2024/04/03 01:48:28;;;;;;;25.15;4.53;;;11.80;99.90;;;11.15;100.00;99937.28;4186527;28;20037;-55
2024/04/03 01:50:38;;;;;;;25.38;4.32;;;11.70;99.90;;;11.15;100.00;99932.00;4186554;28;20028;-56
2024/04/03 01:52:39;;;;;;;28.15;5.53;;;11.80;99.90;;;11.22;100.00;99935.59;4186644;28;20581;-54
2024/04/03 01:54:40;;;;;;;28.60;5.63;;;11.80;99.90;;;11.21;100.00;99936.56;4186421;28;20040;-54
2024/04/03 01:56:40;;;;;;;34.42;3.97;;;11.80;99.90;;;11.20;100.00;99929.69;4186675;28;20017;-56
2024/04/03 01:58:43;;;;;;;22.02;4.63;;;11.80;99.90;;;11.19;100.00;99928.84;4186378;28;20032;-55
2024/04/03 02:00:45;;;;;;;38.55;6.20;;;11.80;99.90;;;11.24;100.00;99936.22;4186473;28;20085;-55
2024/04/03 02:02:46;;;;;;;30.33;5.22;;;11.80;99.90;;;11.23;100.00;99940.66;4186289;28;20032;-56
2024/04/03 02:04:47;;;;;;;31.10;4.57;;;11.90;99.90;;;11.23;100.00;99940.66;4186515;28;20075;-56
2024/04/03 02:06:48;;;;;;;22.75;4.93;;;11.90;99.90;;;11.26;100.00;99937.66;4186276;28;20044;-55
2024/04/03 02:08:48;;;;;;;39.03;6.22;;;11.90;99.90;;;11.28;100.00;99942.78;4186335;28;20059;-54
2024/04/03 02:10:49;;;;;;;35.15;6.82;;;11.90;99.90;;;11.29;100.00;99937.31;4186320;28;20054;-56
2024/04/03 02:12:50;;;;;;;37.85;5.75;;;11.90;99.90;;;11.31;100.00;99929.22;4186196;28;20036;-55
2024/04/03 02:14:51;;;;;;;27.27;5.85;;;11.90;99.90;;;11.27;100.00;99930.56;4186040;28;20029;-53
2024/04/03 02:16:52;;;;;;;32.17;5.55;;;11.90;99.90;;;11.27;100.00;99931.41;4186201;28;20048;-54
2024/04/03 02:18:53;;;;;;;34.25;6.88;;;11.90;99.90;;;11.27;100.00;99923.47;4186174;28;20017;-55
2024/04/03 02:20:54;;;;;;;35.20;4.68;;;11.90;99.90;;;11.27;100.00;99928.75;4186112;28;20037;-56
2024/04/03 02:22:54;;;;;;;41.33;6.22;;;11.90;99.90;;;11.31;100.00;99929.22;4186258;28;20018;-56
2024/04/03 02:24:55;;;;;;;34.97;5.38;;;11.90;99.90;;;11.31;100.00;99927.41;4186026;28;20514;-54
2024/04/03 02:26:56;;;;;;;43.20;6.63;;;12.00;99.90;;;11.33;100.00;99935.13;4185962;28;20511;-56
2024/04/03 02:28:57;;;;;;;39.92;7.07;;;11.90;99.90;;;11.40;100.00;99926.34;4185661;28;20036;-56
2024/04/03 02:31:04;;;;;;;43.40;6.85;;;12.00;99.90;;;11.41;100.00;99948.28;4186049;28;20037;-56
2024/04/03 02:33:06;;;;;;;35.65;5.60;;;12.00;99.90;;;11.41;100.00;99937.72;4185838;28;20051;-55
2024/04/03 02:35:06;;;;;;;45.10;7.35;;;12.00;99.90;;;11.40;100.00;99933.44;4185682;28;20029;-56
2024/04/03 02:37:07;;;;;;;38.78;7.25;;;12.00;99.90;;;11.41;100.00;99935.88;4185704;28;20059;-55
2024/04/03 02:39:08;;;;;;;50.53;7.05;;;12.00;99.90;;;11.44;100.00;99942.63;4185866;28;20052;-55
2024/04/03 02:41:09;;;;;;;31.73;6.40;;;12.00;99.90;;;11.43;100.00;99939.16;4186002;28;20063;-56
2024/04/03 02:43:10;;;;;;;47.45;8.98;;;12.00;99.90;;;11.47;100.00;99932.50;4185441;28;20484;-54
2024/04/03 02:45:11;;;;;;;52.47;7.68;;;12.10;99.90;;;11.46;100.00;99937.97;4185740;28;20098;-56
2024/04/03 02:47:12;;;;;;;44.45;7.57;;;12.10;99.90;;;11.48;100.00;99938.63;4185822;28;20033;-56
2024/04/03 02:49:13;;;;;;;47.22;7.32;;;12.10;99.90;;;11.47;100.00;99936.97;4185702;28;20032;-54
2024/04/03 02:51:14;;;;;;;39.38;7.03;;;12.10;99.90;;;11.47;100.00;99936.97;4185748;28;20028;-54
2024/04/03 02:53:18;;;;;;;56.53;8.13;;;12.10;99.90;;;11.53;100.00;99926.50;4185482;28;20029;-54
2024/04/03 02:55:19;;;;;;;46.03;7.00;;;12.20;99.90;;;11.58;100.00;99933.91;4185513;28;20431;-54
2024/04/03 02:57:20;;;;;;;47.85;7.65;;;12.20;99.90;;;11.58;100.00;99936.53;4185454;28;20064;-54
2024/04/03 02:59:20;;;;;;;45.28;8.43;;;12.20;99.90;;;11.58;100.00;99934.72;4184255;28;20047;-54
2024/04/03 03:01:21;;;;;;;55.30;9.45;;;12.20;99.90;;;11.56;100.00;99935.88;4184552;28;20047;-56
2024/04/03 03:03:25;;;;;;;54.38;9.32;;;12.20;99.90;;;11.62;100.00;99935.16;4185525;28;20456;-56
2024/04/03 03:05:26;;;;;;;35.30;6.80;;;12.20;99.90;;;11.61;100.00;99933.53;4185361;28;20018;-56
2024/04/03 03:07:27;;;;;;;52.00;8.85;;;12.30;99.90;;;11.66;100.00;99942.53;4185257;28;20025;-55
2024/04/03 03:09:28;;;;;;;45.70;8.18;;;12.30;99.90;;;11.68;100.00;99941.56;4185364;28;20025;-56
2024/04/03 03:11:29;;;;;;;54.10;8.88;;;12.30;99.90;;;11.64;100.00;99933.16;4188790;28;20033;-56
2024/04/03 03:13:31;;;;;;;56.95;8.55;;;12.30;99.90;;;11.65;100.00;99935.63;4185083;28;20033;-55
2024/04/03 03:15:32;;;;;;;64.72;9.57;;;12.30;99.90;;;11.66;100.00;99936.44;4185372;28;20100;-53
2024/04/03 03:17:33;;;;;;;64.72;9.75;;;12.30;99.90;;;11.70;100.00;99940.41;4185213;28;20074;-55
2024/04/03 03:19:34;;;;;;;50.63;8.80;;;12.30;99.90;;;11.71;100.00;99939.38;4185320;28;20017;-53
2024/04/03 03:21:35;;;;;;;49.78;8.45;;;12.30;99.90;;;11.68;100.00;99935.25;4185316;28;20388;-51
2024/04/03 03:23:36;;;;;;;59.45;8.25;;;12.30;99.90;;;11.68;100.00;99944.19;4185262;28;20032;-56
2024/04/03 03:25:36;;;;;;;43.47;7.95;;;12.30;99.90;;;11.69;100.00;99941.34;4185263;28;20032;-55
2024/04/03 03:27:37;;;;;;;67.22;9.75;;;12.30;99.90;;;11.69;100.00;99946.63;4185453;28;20025;-55
2024/04/03 03:29:38;;;;;;;61.15;9.55;;;12.30;99.90;;;11.73;100.00;99953.25;4184993;28;20032;-54
2024/04/03 03:31:39;;;;;;;48.80;8.82;;;12.30;99.90;;;11.71;100.00;99947.31;4185148;28;20492;-53
2024/04/03 03:33:41;;;;;;;61.10;10.43;;;12.30;99.90;;;11.72;100.00;99946.31;4184807;28;20431;-52
2024/04/03 03:35:49;;;;;;;62.22;9.32;;;12.30;99.90;;;11.80;100.00;99940.91;4185279;28;20039;-50
2024/04/03 03:37:49;;;;;;;45.70;9.05;;;12.40;99.90;;;11.77;100.00;99945.78;4185199;28;20056;-57
2024/04/03 03:39:50;;;;;;;58.28;8.55;;;12.40;99.90;;;11.76;100.00;99952.88;4184975;28;20051;-56
2024/04/03 03:41:51;;;;;;;53.33;9.73;;;12.40;99.90;;;11.79;100.00;99952.50;4184887;28;20025;-56
2024/04/03 03:43:52;;;;;;;42.30;9.88;;;12.40;99.90;;;11.76;100.00;99950.22;4184741;28;20037;-56
2024/04/03 03:45:53;;;;;;;60.10;8.52;;;12.40;99.90;;;11.80;100.00;99943.56;4185111;28;20029;-53
2024/04/03 03:47:54;;;;;;;49.20;9.82;;;12.40;99.90;;;11.79;100.00;99951.69;4184982;28;20396;-54
2024/04/03 03:54:34;;;;;;;57.17;11.63;;;12.40;99.90;;;11.74;100.00;99946.94;4185051;28;20032;-54
2024/04/03 03:56:34;;;;;;;61.75;8.90;;;12.40;99.90;;;11.78;100.00;99944.75;4185055;28;20036;-55
2024/04/03 03:58:35;;;;;;;49.88;10.02;;;12.40;99.90;;;11.79;100.00;99952.50;4184823;28;20029;-55
2024/04/03 04:00:36;;;;;;;50.88;10.13;;;12.40;99.90;;;11.85;100.00;99948.31;4184933;28;20028;-55
2024/04/03 04:02:37;;;;;;;56.80;10.07;;;12.40;99.90;;;11.81;100.00;99944.38;4184841;28;20025;-54
2024/04/03 04:04:38;;;;;;;51.63;8.88;;;12.40;99.90;;;11.80;100.00;99945.41;4184807;28;20074;-55
2024/04/03 04:06:38;;;;;;;49.13;9.85;;;12.40;99.90;;;11.78;100.00;99944.75;4184835;28;20044;-55
2024/04/03 04:08:39;;;;;;;54.80;10.50;;;12.40;99.90;;;11.79;100.00;99952.50;4184687;28;20493;-53
2024/04/03 04:10:40;;;;;;;57.47;9.85;;;12.40;99.90;;;11.79;100.00;99941.94;4184898;28;20033;-53
2024/04/03 04:12:42;;;;;;;68.22;11.18;;;12.40;99.90;;;11.80;100.00;99946.19;4184920;28;20021;-56
2024/04/03 04:14:49;;;;;;;58.13;10.93;;;12.40;99.90;;;11.78;100.00;99945.56;4184813;28;20040;-54
2024/04/03 04:16:50;;;;;;;62.00;12.20;;;12.40;99.90;;;11.78;100.00;99952.69;4186887;28;20029;-55
2024/04/03 04:18:51;;;;;;;57.25;11.20;;;12.40;99.90;;;11.74;100.00;99946.94;4188011;28;20449;-55
2024/04/03 04:20:56;;;;;;;59.83;11.35;;;12.40;99.90;;;11.76;100.00;99950.22;4187853;28;20387;-56
2024/04/03 04:22:57;;;;;;;69.03;10.85;;;12.40;99.90;;;11.79;100.00;99943.75;4188095;28;20025;-54
2024/04/03 04:24:58;;;;;;;64.53;10.05;;;12.40;99.90;;;11.76;100.00;99965.25;4187949;28;20036;-56
2024/04/03 04:27:01;;;;;;;66.15;10.75;;;12.40;99.90;;;11.80;100.00;99962.06;4187856;28;20103;-55
2024/04/03 04:29:02;;;;;;;52.75;9.18;;;12.40;99.90;;;11.76;100.00;99952.88;4187740;28;20033;-54
2024/04/03 04:31:05;;;;;;;61.97;13.43;;;12.40;99.90;;;11.81;100.00;99958.41;4187964;28;20381;-55
2024/04/03 04:33:06;;;;;;;59.90;9.52;;;12.40;99.90;;;11.77;100.00;99951.84;4187642;28;20036;-55
2024/04/03 04:35:07;;;;;;;61.13;10.38;;;12.40;99.90;;;11.78;100.00;99953.50;4187720;28;20029;-56
2024/04/03 04:37:10;;;;;;;61.58;10.38;;;12.40;99.90;;;11.79;100.00;99956.97;4187664;28;20058;-55
2024/04/03 04:39:11;;;;;;;61.83;9.77;;;12.40;99.90;;;11.82;100.00;99965.34;4187832;28;20029;-54
2024/04/03 04:41:12;;;;;;;49.80;8.45;;;12.40;99.90;;;11.75;100.00;99960.97;4187580;28;20033;-53
2024/04/03 04:43:13;;;;;;;43.08;8.52;;;12.40;99.90;;;11.72;100.00;99971.91;4187533;28;20033;-56
2024/04/03 04:45:14;;;;;;;44.40;9.23;;;12.30;99.90;;;11.66;100.00;99968.13;4187547;28;20032;-56
2024/04/03 04:47:14;;;;;;;37.45;7.60;;;12.30;99.90;;;11.63;100.00;99960.56;4187729;28;20032;-56
2024/04/03 04:49:20;;;;;;;36.05;7.18;;;12.30;99.90;;;11.57;100.00;99964.78;4187587;28;20040;-54
2024/04/03 04:51:21;;;;;;;33.33;7.38;;;12.20;99.90;;;11.52;100.00;99961.03;4187452;28;20086;-55
2024/04/03 04:53:22;;;;;;;34.03;6.07;;;12.20;99.90;;;11.47;100.00;99958.09;4187697;28;20037;-55
2024/04/03 04:55:24;;;;;;;49.45;8.68;;;12.10;99.90;;;11.49;100.00;99958.75;4187471;28;20025;-55
2024/04/03 04:57:25;;;;;;;40.90;7.88;;;12.10;99.90;;;11.44;100.00;99961.13;4187583;28;20104;-55
2024/04/03 04:59:25;;;;;;;41.42;7.90;;;12.10;99.90;;;11.44;100.00;99969.84;4187216;28;20036;-55
2024/04/03 05:01:26;;;;;;;44.80;7.80;;;12.10;99.90;;;11.44;100.00;99969.84;4186983;28;20060;-55
2024/04/03 05:03:27;;;;;;;53.42;9.68;;;12.10;99.90;;;11.48;100.00;99972.94;4187414;28;20025;-51
2024/04/03 05:05:32;;;;;;;54.40;8.80;;;12.10;99.90;;;11.43;100.00;99968.22;4187293;28;20021;-51
2024/04/03 05:07:33;;;;;;;44.90;7.60;;;12.00;99.90;;;11.43;100.00;99967.41;4187126;28;20487;-53
2024/04/03 05:09:34;;;;;;;52.15;9.15;;;12.10;99.90;;;11.46;100.00;99961.75;4187286;28;20091;-55
2024/04/03 05:11:34;;;;;;;45.90;8.50;;;12.00;99.90;;;11.47;100.00;99968.66;4187311;28;20075;-54
2024/04/03 05:13:36;;;;;;;54.85;10.65;;;12.10;99.90;;;11.49;100.00;99969.31;4187114;28;20025;-55
2024/04/03 05:15:36;;;;;;;63.67;10.35;;;12.10;99.90;;;11.51;100.00;99969.94;4187331;28;20028;-54
2024/04/03 05:17:37;;;;;;;53.05;7.65;;;12.10;99.90;;;11.49;100.00;99974.59;4187035;28;20403;-54
2024/04/03 05:19:38;;;;;;;59.67;9.15;;;12.10;99.90;;;11.50;100.00;99969.13;4187304;28;20378;-55
2024/04/03 05:21:40;;;;;;;71.90;10.45;;;12.10;99.90;;;11.52;100.00;99967.13;4187101;28;20442;-54
2024/04/03 05:23:45;;;;;;;58.40;9.68;;;12.10;99.90;;;11.55;100.00;99968.59;4187062;28;20029;-53
2024/04/03 05:25:54;;;;;;;59.92;10.95;;;12.10;99.90;;;11.55;100.00;99972.06;4186852;28;20021;-55
2024/04/03 05:27:55;;;;;;;59.05;9.45;;;12.10;99.90;;;11.54;100.00;99978.34;4185173;28;20033;-55
2024/04/03 05:29:56;;;;;;;54.55;9.02;;;12.10;99.90;;;11.55;100.00;99977.34;4186857;28;20031;-54
2024/04/03 05:31:57;;;;;;;49.45;7.72;;;12.10;99.90;;;11.51;100.00;99968.13;4186838;28;20032;-55
2024/04/03 05:34:02;;;;;;;51.92;8.93;;;12.10;99.90;;;11.51;100.00;99975.22;4186696;28;20522;-55
2024/04/03 05:36:05;;;;;;;63.72;9.70;;;12.10;99.90;;;11.55;100.00;99984.44;4186890;28;20021;-56
2024/04/03 05:38:06;;;;;;;67.93;11.13;;;12.10;99.90;;;11.52;100.00;99985.63;4187011;28;20427;-55
2024/04/03 05:40:08;;;;;;;61.40;10.10;;;12.10;99.90;;;11.53;100.00;99986.41;4186649;28;20033;-56
2024/04/03 05:42:08;;;;;;;57.55;8.52;;;12.10;99.90;;;11.50;100.00;99990.25;4186869;28;20040;-56
2024/04/03 05:44:09;;;;;;;70.18;10.13;;;12.10;99.90;;;11.50;100.00;99992.06;4186556;28;20495;-56
2024/04/03 05:46:10;;;;;;;58.63;10.27;;;12.10;99.90;;;11.52;100.00;99995.38;4186645;28;20051;-55
2024/04/03 05:48:12;;;;;;;70.47;10.55;;;12.10;99.90;;;11.49;100.00;99999.19;4186707;28;20365;-50
2024/04/03 05:50:14;;;;;;;63.67;12.98;;;12.10;99.90;;;11.49;100.00;99995.72;4186717;28;20029;-56
2024/04/03 05:52:15;;;;;;;66.43;11.27;;;12.10;99.90;;;11.51;100.00;99991.06;4186871;28;20504;-53
2024/04/03 05:54:16;;;;;;;54.67;9.25;;;12.10;99.90;;;11.55;100.00;99997.66;4186543;28;20044;-57
2024/04/03 05:56:17;;;;;;;49.15;9.65;;;12.10;99.90;;;11.51;100.00;100004.28;4186462;28;20036;-55
2024/04/03 05:58:17;;;;;;;56.50;10.00;;;12.10;99.90;;;11.52;100.00;99998.84;4186368;28;20048;-55
2024/04/03 06:00:18;;;;;;;58.78;9.75;;;12.10;99.90;;;11.58;100.00;100002.56;4186493;28;20032;-55
2024/04/03 06:02:20;;;;;;;51.10;9.27;;;12.10;99.90;;;11.57;100.00;100011.47;4186467;28;20025;-54
2024/04/03 06:04:20;;;;;;;54.42;9.63;;;12.10;99.90;;;11.57;100.00;100007.03;4186525;28;20116;-53
2024/04/03 06:06:22;;;;;;;54.50;9.75;;;12.20;99.90;;;11.55;100.00;100016.13;4186333;28;20388;-53
2024/04/03 06:08:24;;;;;;;40.15;7.63;;;12.10;99.90;;;11.59;100.00;100012.13;4186419;28;20423;-50
2024/04/03 06:10:24;;;;;;;51.40;7.30;;;12.20;99.90;;;11.60;100.00;100026.97;4186234;28;20021;-56
2024/04/03 06:12:25;;;;;;;48.03;8.50;;;12.10;99.90;;;11.62;100.00;100009.94;4184935;28;20075;-54
2024/04/03 06:14:27;;;;;;;57.80;9.77;;;12.20;99.90;;;11.62;100.00;100025.78;4186182;28;20028;-54
2024/04/03 06:16:27;;;;;;;65.20;8.70;;;12.20;99.90;;;11.64;100.00;100030.91;4186305;28;20476;-54
2024/04/03 06:18:28;;;;;;;51.85;7.80;;;12.20;99.90;;;11.62;100.00;100024.97;4186224;28;20021;-55
2024/04/03 06:20:29;;;;;;;47.00;8.35;;;12.20;99.90;;;11.63;100.00;100037.19;4186230;28;20025;-55
2024/04/03 06:22:30;;;;;;;46.70;7.72;;;12.20;99.90;;;11.68;100.00;100040.91;4185973;28;20434;-54
2024/04/03 06:24:31;;;;;;;38.20;7.25;;;12.20;99.90;;;11.69;100.00;100036.47;4186299;28;20032;-55
2024/04/03 06:26:33;;;;;;;45.22;7.57;;;12.20;99.90;;;11.71;100.00;100049.53;4186102;28;20025;-53
2024/04/03 06:28:34;;;;;;;33.03;6.35;;;12.30;99.90;;;11.69;100.00;100052.31;4185872;28;20483;-55
2024/04/03 06:30:35;;;;;;;44.72;6.75;;;12.30;99.90;;;11.70;100.00;100054.00;4185844;28;20041;-55
2024/04/03 06:32:35;;;;;;;37.72;6.50;;;12.30;99.90;;;11.75;100.00;100056.09;4185634;28;20403;-54
2024/04/03 06:34:36;;;;;;;39.85;5.90;;;12.30;99.90;;;11.74;100.00;100043.91;4185621;28;20068;-54
2024/04/03 06:36:38;;;;;;;36.30;6.50;;;12.30;99.90;;;11.74;100.00;100057.91;4185886;28;20021;-55
2024/04/03 06:38:39;;;;;;;33.42;6.93;;;12.30;99.90;;;11.77;100.00;100054.91;4185035;28;20139;-53
2024/04/03 06:40:40;;;;;;;34.97;6.88;;;12.40;99.90;;;11.82;100.00;100070.22;4185841;28;20051;-56
2024/04/03 06:42:41;;;;;;;28.75;5.53;;;12.40;99.90;;;11.82;100.00;100068.41;4185954;28;20103;-56
2024/04/03 06:44:43;;;;;;;34.33;7.85;;;12.40;99.90;;;11.86;100.00;100068.84;4185550;28;20032;-55
2024/04/03 06:46:45;;;;;;;34.53;5.95;;;12.40;99.90;;;11.85;100.00;100072.50;4185622;28;20032;-52
2024/04/03 06:48:46;;;;;;;30.17;4.80;;;12.40;99.90;;;11.86;100.00;100077.59;4185307;28;20056;-55
2024/04/03 06:50:54;;;;;;;34.22;4.75;;;12.50;99.90;;;11.91;100.00;100077.91;4185631;28;20029;-56
2024/04/03 06:52:58;;;;;;;30.77;4.40;;;12.50;99.90;;;11.87;100.00;100079.25;4196797;28;20020;-55
2024/04/03 06:54:59;;;;;;;27.17;4.93;;;12.50;99.90;;;11.91;100.00;100091.13;4185698;28;20484;-56
2024/04/03 06:57:01;;;;;;;20.17;4.65;;;12.50;99.90;;;11.95;100.00;100086.28;4185695;28;20043;-55
2024/04/03 06:59:02;;;;;;;28.58;4.97;;;12.50;99.90;;;12.03;100.00;100092.31;4185501;28;20040;-55
2024/04/03 07:01:03;;;;;;;28.25;4.97;;;12.60;99.90;;;12.08;100.00;100092.59;4185376;28;20028;-55
2024/04/03 07:03:05;;;;;;;21.60;5.47;;;12.60;99.90;;;12.04;100.00;100095.75;4185369;28;20039;-56
2024/04/03 07:05:06;;;;;;;27.65;4.00;;;12.60;99.90;;;12.07;100.00;100092.75;4185501;28;20025;-55
2024/04/03 07:07:08;;;;;;;16.35;2.70;;;12.60;99.90;;;12.12;100.00;100107.09;4185380;28;20029;-54
2024/04/03 07:09:09;;;;;;;17.17;3.90;;;12.70;99.90;;;12.12;100.00;100101.81;4185244;28;20037;-55
2024/04/03 07:11:11;;;;;;;15.98;2.70;;;12.70;99.90;;;12.10;100.00;100108.25;4185444;28;20020;-54
2024/04/03 07:13:12;;;;;;;21.33;3.53;;;12.70;99.90;;;12.09;100.00;100110.09;4185284;28;20036;-56
2024/04/03 07:15:13;;;;;;;19.05;3.67;;;12.70;99.90;;;12.07;100.00;100113.91;4185236;28;20108;-55
2024/04/03 07:17:15;;;;;;;16.45;2.72;;;12.60;99.90;;;12.03;100.00;100118.75;4185496;28;20104;-55
2024/04/03 07:19:17;;;;;;;12.95;2.17;;;12.60;99.90;;;12.02;100.00;100125.03;4185300;28;20065;-56
2024/04/03 07:21:18;;;;;;;10.40;2.20;;;12.60;99.90;;;11.99;100.00;100121.91;4185396;28;20433;-56
2024/04/03 07:23:25;;;;;;;6.82;1.50;;;12.60;99.90;;;11.96;100.00;100140.78;4185281;28;20025;-55
2024/04/03 07:25:27;;;;;;;9.70;1.75;;;12.60;99.90;;;11.92;100.00;100132.38;4185327;28;20037;-56
2024/04/03 07:27:28;;;;;;;17.85;2.58;;;12.60;99.90;;;11.96;100.00;100128.41;4185313;28;20032;-55
2024/04/03 07:29:28;;;;;;;11.63;2.70;;;12.50;99.90;;;12.02;100.00;100140.06;4185036;28;20033;-56
2024/04/03 07:31:29;;;;;;;5.88;1.60;;;12.60;99.90;;;12.07;100.00;100141.16;4185128;28;20033;-54
2024/04/03 07:33:30;;;;;;;9.27;1.55;;;12.60;99.90;;;12.24;100.00;100138.38;4185090;28;20458;-56
2024/04/03 07:35:32;;;;;;;5.68;1.40;;;12.60;99.90;;;12.26;100.00;100149.56;4184972;28;20040;-56
2024/04/03 07:37:38;;;;;;;7.38;2.10;;;12.70;99.90;;;12.35;100.00;100143.19;4185296;28;20021;-56
2024/04/03 07:39:39;;;;;;;5.85;1.23;;;12.70;99.90;;;12.49;100.00;100145.03;4185213;28;20103;-56
2024/04/03 07:41:40;;;;;;;7.53;1.48;;;12.90;99.90;;;12.57;100.00;100156.31;4185066;28;20033;-55
2024/04/03 07:43:41;;;;;;;10.10;1.52;;;13.00;99.90;;;12.50;100.00;100155.44;4183792;28;20024;-55
2024/04/03 07:45:41;;;;;;;12.35;1.88;;;13.00;99.90;;;12.59;100.00;100161.44;4174992;28;20501;-56
2024/04/03 07:47:42;;;;;;;5.05;1.23;;;13.10;99.90;;;12.51;100.00;100170.31;4185233;28;20495;-55
2024/04/03 07:49:43;;;;;;;8.50;1.67;;;13.10;99.90;;;12.56;100.00;100167.94;4185373;28;20108;-56
2024/04/03 07:51:47;;;;;;;8.68;2.67;;;13.10;99.90;;;12.76;100.00;100176.13;4188279;28;20041;-56
2024/04/03 07:53:48;;;;;;;4.75;0.80;;;13.30;99.90;;;12.80;100.00;100180.06;4188489;28;20025;-56
2024/04/03 07:55:50;;;;;;;6.25;1.40;;;13.30;99.90;;;12.89;100.00;100181.59;4188491;28;20050;-54
2024/04/03 07:57:51;;;;;;;6.13;1.02;;;13.40;99.90;;;13.16;100.00;100185.41;4188208;28;20115;-55
2024/04/03 07:59:52;;;;;;;7.30;1.88;;;13.60;99.90;;;13.31;100.00;100199.44;4188383;28;20033;-56
2024/04/03 08:01:53;;;;;;;8.52;1.38;;;13.70;99.90;;;13.33;100.00;100213.31;4188118;28;20017;-57
2024/04/03 08:03:53;;;;;;;3.10;0.80;;;13.80;99.90;;;13.22;100.00;100212.00;4188420;28;20391;-56
2024/04/03 08:05:54;;;;;;;6.93;1.77;;;13.80;99.90;;;13.26;100.00;100221.19;4188228;28;20021;-55
2024/04/03 08:07:55;;;;;;;6.07;1.08;;;13.80;99.90;;;13.24;100.00;100225.03;4188207;28;20025;-54
2024/04/03 08:09:56;;;;;;;3.70;1.05;;;13.90;99.90;;;13.32;100.00;100237.38;4188549;28;20028;-56
2024/04/03 08:11:57;;;;;;;6.22;1.70;;;13.90;99.90;;;13.28;100.00;100239.56;4188112;28;20032;-56
2024/04/03 08:13:59;;;;;;;5.15;1.30;;;13.90;99.90;;;13.29;100.00;100243.81;4187824;28;20514;-56
2024/04/03 08:16:05;;;;;;;3.05;0.90;;;13.90;99.90;;;13.43;100.00;100252.78;4187960;28;20029;-56
2024/04/03 08:18:06;;;;;;;4.20;1.48;;;13.90;99.90;;;13.14;100.00;100254.44;4188406;28;20020;-55
2024/04/03 08:20:12;;;;;;;3.67;0.80;;;13.90;99.90;;;13.09;100.00;100264.78;4188101;28;20480;-56
2024/04/03 08:22:13;;;;;;;5.20;1.10;;;13.80;99.90;;;12.92;100.00;100262.47;4188018;28;20025;-54
2024/04/03 08:24:15;;;;;;;5.68;1.10;;;13.70;99.90;;;12.91;100.00;100276.69;4188199;28;20043;-56